logo
Search for airport 
image banner adimage banner adimage banner ad
image banner ad

NWWW - Noumea La Tontouta

Located in Noumea (Nouvelle-Caledonie), New Caledonia

ICAO - NWWW, IATA - NOU

Data provided by Airmate  

General information

Coordinates: S22°0'52" E166°12'47"
Elevation is 51 feet MSL.
Magnetic variation is 12.36° East
View others Airports in (unassigned)

Operational data

Special qualification required
Current time UTC:
Current local time:
Weather
METAR: NWWW 202200Z AUTO 13009KT CAVOK 29/23 Q1011 NOSIG
View NOTAMs / SUP AIP / TFR affecting this airport [VIEW]
Communications frequencies: [VIEW]

Runways:

RWY identifierQFULength (ft)Width (ft)SurfaceLDA (ft)
11121°10663148ASPH10663
29301°10663148ASPH10663

Airport contact information

Address: Noumea (Nouvelle-Caledonie) New Caledonia

Satellite view of NWWW